Time;durP1;ratioP1;P1;durP2;ratioP2;P2;SDS_P1;SDS_P2;PMS_P1;PMS_P2;Temp;Humidity;BMP_temperature;BMP_pressure;BME280_temperature;BME280_humidity;BME280_pressure;Samples;Min_cycle;Max_cycle;Signal;HPM_P1;HPM_P2
2022/02/09 00:01:28;;;;;;;5.15;4.62;;;;;;;4.09;54.66;95059.00;840381;70;26354;-83
2022/02/09 00:02:23;;;;;;;5.50;4.80;;;;;;;4.10;54.54;95057.48;826434;70;26347;-85
2022/02/09 00:03:20;;;;;;;8.53;5.22;;;;;;;4.12;54.52;95061.92;836139;70;26323;-84
2022/02/09 00:04:32;;;;;;;6.42;5.12;;;;;;;4.11;54.52;95059.03;839948;70;26265;-82
2022/02/09 00:06:15;;;;;;;8.80;5.50;;;;;;;4.13;54.56;95058.30;838720;70;26342;-84
2022/02/09 00:06:44;;;;;;;9.10;5.28;;;;;;;4.16;54.56;95059.66;812227;70;26273;-84
2022/02/09 00:07:58;;;;;;;7.25;5.33;;;;;;;4.16;54.52;95060.96;838973;70;26278;-83
2022/02/09 00:08:50;;;;;;;6.55;5.12;;;;;;;4.15;54.57;95053.66;838825;70;26319;-82
2022/02/09 00:09:54;;;;;;;6.08;5.45;;;;;;;4.18;54.51;95057.62;842144;70;26358;-84
2022/02/09 00:11:02;;;;;;;7.35;5.47;;;;;;;4.20;54.54;95047.27;842357;70;26350;-84
2022/02/09 00:12:08;;;;;;;5.95;5.35;;;;;;;4.20;54.53;95054.28;840400;70;26265;-86
2022/02/09 00:14:42;;;;;;;5.87;5.00;;;;;;;4.23;54.49;95054.31;840434;70;26257;-83
2022/02/09 00:15:50;;;;;;;9.80;5.25;;;;;;;4.23;54.41;95057.69;838105;70;26221;-84
2022/02/09 00:17:08;;;;;;;5.37;4.72;;;;;;;4.22;54.38;95057.43;837442;70;26270;-84
2022/02/09 00:18:33;;;;;;;6.70;5.05;;;;;;;4.24;54.45;95061.07;835334;70;24658;-83
2022/02/09 00:19:03;;;;;;;8.03;5.08;;;;;;;4.24;54.43;95051.98;821521;70;26320;-85
2022/02/09 00:21:34;;;;;;;6.42;5.50;;;;;;;4.23;54.36;95058.98;840411;70;26727;-84
2022/02/09 00:22:47;;;;;;;6.50;5.12;;;;;;;4.26;54.37;95072.83;838805;70;26282;-84
2022/02/09 00:36:20;;;;;;;9.15;5.70;;;;;;;4.20;54.57;95093.23;840509;70;26218;-83
2022/02/09 00:42:06;;;;;;;6.17;5.05;;;;;;;4.21;54.60;95091.68;837477;71;26393;-83
2022/02/09 00:43:33;;;;;;;8.25;5.20;;;;;;;4.21;54.60;95085.19;833892;71;26265;-83
2022/02/09 01:39:41;;;;;;;9.10;4.70;;;;;;;4.12;55.19;95078.03;838334;71;26246;-83
2022/02/09 01:56:09;;;;;;;5.12;4.62;;;;;;;4.33;54.86;95078.65;837491;71;26277;-82
2022/02/09 01:57:16;;;;;;;6.58;4.40;;;;;;;4.34;54.83;95080.23;837491;71;26272;-83
2022/02/09 01:58:22;;;;;;;6.15;4.70;;;;;;;4.37;54.74;95075.08;837511;71;26262;-81
2022/02/09 01:59:26;;;;;;;5.35;4.85;;;;;;;4.39;54.72;95075.63;837473;71;26343;-84
2022/02/09 02:00:30;;;;;;;8.83;5.15;;;;;;;4.40;54.71;95074.63;837640;71;27137;-82
2022/02/09 02:01:34;;;;;;;6.00;4.72;;;;;;;4.41;54.63;95069.17;837489;71;26214;-84
2022/02/09 02:02:38;;;;;;;7.00;5.12;;;;;;;4.43;54.62;95070.77;837511;71;24681;-86
2022/02/09 02:03:44;;;;;;;9.03;5.20;;;;;;;4.45;54.62;95077.81;837667;71;26261;-84
2022/02/09 02:04:48;;;;;;;7.05;5.30;;;;;;;4.45;54.70;95076.52;819253;72;26338;-83
2022/02/09 02:05:55;;;;;;;7.75;5.15;;;;;;;4.47;54.54;95079.66;819997;71;26308;-82
2022/02/09 02:06:57;;;;;;;6.90;4.87;;;;;;;4.48;54.57;95086.42;837708;71;26280;-82
2022/02/09 02:08:01;;;;;;;7.33;6.10;;;;;;;4.49;54.59;95082.81;838463;71;26258;-81
2022/02/09 02:09:05;;;;;;;9.40;4.65;;;;;;;4.52;54.61;95087.53;838625;71;26266;-83
2022/02/09 02:10:11;;;;;;;6.28;4.85;;;;;;;4.52;54.55;95088.34;837593;71;26249;-84
2022/02/09 02:11:41;;;;;;;6.92;5.00;;;;;;;4.50;54.56;95081.78;837667;71;26261;-83
2022/02/09 02:13:12;;;;;;;7.75;5.15;;;;;;;4.54;54.53;95082.89;835807;71;26281;-83
2022/02/09 02:14:26;;;;;;;6.83;4.33;;;;;;;4.55;54.58;95086.56;834337;71;26273;-83
2022/02/09 02:16:49;;;;;;;6.37;5.00;;;;;;;4.58;54.57;95093.90;837312;71;26301;-84
2022/02/09 02:17:51;;;;;;;7.80;4.97;;;;;;;4.59;54.60;95099.36;837238;71;26977;-83
2022/02/09 02:19:03;;;;;;;6.45;4.60;;;;;;;4.58;54.66;95104.30;837257;71;26351;-83
2022/02/09 02:20:15;;;;;;;6.42;5.30;;;;;;;4.61;54.67;95100.43;836614;71;26766;-84
2022/02/09 02:21:27;;;;;;;7.53;5.30;;;;;;;4.62;54.64;95100.69;835226;71;26311;-83
2022/02/09 02:22:39;;;;;;;7.90;5.17;;;;;;;4.64;54.65;95105.14;836047;71;26218;-84
2022/02/09 02:23:49;;;;;;;10.65;5.78;;;;;;;4.67;54.66;95107.29;834061;71;26293;-84
2022/02/09 02:25:21;;;;;;;7.60;5.60;;;;;;;4.66;54.69;95107.00;833662;71;26305;-82
2022/02/09 02:26:15;;;;;;;7.60;5.03;;;;;;;4.68;54.69;95110.15;831838;71;26210;-84
2022/02/09 02:31:15;;;;;;;8.30;5.35;;;;;;;4.71;54.83;95108.91;837397;71;26215;-81
2022/02/09 02:39:43;;;;;;;6.60;5.40;;;;;;;4.78;54.84;95101.22;790695;73;26307;-84
2022/02/09 02:41:14;;;;;;;7.08;5.25;;;;;;;4.78;54.87;95099.14;786507;73;26321;-82
2022/02/09 02:47:20;;;;;;;9.45;5.00;;;;;;;4.78;54.90;95107.72;840422;70;26289;-84
2022/02/09 02:56:48;;;;;;;9.10;5.05;;;;;;;4.78;54.91;95115.52;821652;70;26269;-85
2022/02/09 02:57:16;;;;;;;5.55;5.05;;;;;;;4.89;54.89;95115.70;840434;70;26408;-84
2022/02/09 03:08:24;;;;;;;6.20;5.60;;;;;;;4.92;55.01;95132.90;840336;70;26689;-83
2022/02/09 03:11:33;;;;;;;8.45;5.50;;;;;;;4.97;55.06;95137.41;794178;73;26417;-83
2022/02/09 03:12:37;;;;;;;5.90;4.87;;;;;;;4.98;55.05;95135.86;832760;70;26219;-83
2022/02/09 03:13:48;;;;;;;8.73;5.10;;;;;;;4.99;55.02;95134.84;839654;70;26257;-83
2022/02/09 03:14:51;;;;;;;6.75;4.70;;;;;;;5.00;55.07;95139.53;838165;70;26319;-83
2022/02/09 03:15:57;;;;;;;7.22;5.33;;;;;;;5.00;55.06;95137.70;838577;70;26249;-84
2022/02/09 03:17:01;;;;;;;7.00;5.55;;;;;;;5.04;55.05;95142.45;839474;70;26304;-84
2022/02/09 03:20:35;;;;;;;5.87;5.05;;;;;;;5.06;54.97;95148.20;840456;70;26262;-82
2022/02/09 03:21:43;;;;;;;5.35;4.70;;;;;;;5.07;54.98;95144.08;838604;70;26414;-81
2022/02/09 03:24:01;;;;;;;5.58;5.03;;;;;;;5.11;55.08;95149.08;840497;70;26290;-85
2022/02/09 03:25:24;;;;;;;8.15;5.17;;;;;;;5.10;55.08;95144.89;839284;70;26337;-85
2022/02/09 03:26:30;;;;;;;6.58;5.03;;;;;;;5.11;55.08;95147.78;835418;70;26265;-84
2022/02/09 03:27:43;;;;;;;9.25;4.60;;;;;;;5.12;55.03;95142.84;835159;70;26234;-83
2022/02/09 03:42:14;;;;;;;6.78;5.45;;;;;;;5.15;55.06;95131.16;840987;70;26831;-83
2022/02/09 03:43:25;;;;;;;6.78;5.30;;;;;;;5.19;55.22;95118.77;816666;72;26284;-86
2022/02/09 03:47:03;;;;;;;5.60;5.10;;;;;;;5.20;55.33;95119.03;824117;72;26263;-84
2022/02/09 03:49:04;;;;;;;8.48;5.10;;;;;;;5.24;55.35;95118.05;824173;72;26301;-83
2022/02/09 03:51:45;;;;;;;5.70;5.10;;;;;;;5.24;55.42;95119.34;824199;72;26276;-83
2022/02/09 03:54:08;;;;;;;6.37;4.83;;;;;;;5.25;55.51;95124.84;824515;72;26220;-85
2022/02/09 03:56:41;;;;;;;5.42;4.90;;;;;;;5.27;55.63;95120.67;824603;72;26400;-85
2022/02/09 03:57:44;;;;;;;6.05;4.95;;;;;;;5.27;55.66;95118.89;821941;72;26791;-86
2022/02/09 03:58:39;;;;;;;7.67;5.35;;;;;;;5.29;55.66;95120.73;822427;72;26225;-84
2022/02/09 03:59:42;;;;;;;6.12;5.10;;;;;;;5.28;55.72;95117.84;825212;72;26267;-84
2022/02/09 04:00:47;;;;;;;10.40;5.65;;;;;;;5.31;55.73;95125.68;824992;72;26292;-84
2022/02/09 04:01:51;;;;;;;7.55;4.97;;;;;;;5.30;55.74;95124.90;825261;72;26264;-84
2022/02/09 04:03:00;;;;;;;5.30;4.80;;;;;;;5.30;55.75;95116.31;825130;72;26376;-84
2022/02/09 04:04:01;;;;;;;7.92;4.87;;;;;;;5.30;55.80;95115.80;824641;72;26342;-82
2022/02/09 04:05:07;;;;;;;6.80;5.28;;;;;;;5.33;55.84;95113.22;825097;72;26322;-80
2022/02/09 04:06:11;;;;;;;8.20;5.80;;;;;;;5.33;55.87;95108.83;825313;72;26260;-82
2022/02/09 04:07:14;;;;;;;7.17;5.75;;;;;;;5.35;55.86;95106.77;825670;72;26299;-80
2022/02/09 04:08:25;;;;;;;9.25;5.47;;;;;;;5.35;55.88;95109.38;824810;72;26216;-83
2022/02/09 04:09:29;;;;;;;6.10;5.20;;;;;;;5.37;55.87;95111.72;823552;72;26333;-82
2022/02/09 04:10:41;;;;;;;5.90;5.30;;;;;;;5.36;55.89;95104.43;823928;72;26284;-82
2022/02/09 04:12:04;;;;;;;5.90;5.12;;;;;;;5.36;55.98;95105.73;824502;72;26286;-84
2022/02/09 04:13:29;;;;;;;6.47;5.08;;;;;;;5.36;55.96;95103.13;824039;72;26357;-84
2022/02/09 04:14:28;;;;;;;6.10;5.15;;;;;;;5.39;56.03;95109.66;820816;71;26287;-84
2022/02/09 04:15:32;;;;;;;5.67;5.17;;;;;;;5.39;56.07;95110.47;823024;72;26298;-84
2022/02/09 04:18:00;;;;;;;10.78;5.50;;;;;;;5.40;56.17;95119.06;809740;72;27270;-85
2022/02/09 04:19:14;;;;;;;7.08;5.05;;;;;;;5.40;56.18;95121.66;821842;72;26283;-82
2022/02/09 04:36:33;;;;;;;5.10;4.70;;;;;;;5.44;56.89;95107.66;824087;72;26334;-83
2022/02/09 04:37:35;;;;;;;4.70;4.20;;;;;;;5.43;56.99;95115.97;820716;72;26783;-87
2022/02/09 04:38:53;;;;;;;8.05;4.60;;;;;;;5.43;57.05;95114.66;821362;72;26894;-85
2022/02/09 04:39:59;;;;;;;7.00;4.30;;;;;;;5.45;57.13;95121.72;822457;72;26287;-83
2022/02/09 04:42:34;;;;;;;4.42;4.03;;;;;;;5.46;57.22;95119.41;823824;72;26292;-82
2022/02/09 04:44:41;;;;;;;4.60;4.30;;;;;;;5.43;57.30;95108.16;814192;73;26307;-84
2022/02/09 04:50:51;;;;;;;5.42;4.20;;;;;;;5.55;57.50;95117.17;813867;73;26835;-84
2022/02/09 04:52:00;;;;;;;4.50;4.20;;;;;;;5.54;57.53;95116.39;810013;73;26281;-83
2022/02/09 04:53:14;;;;;;;5.30;4.80;;;;;;;5.56;57.58;95113.03;809136;73;26269;-84
2022/02/09 04:54:26;;;;;;;4.45;4.08;;;;;;;5.58;57.63;95107.59;810466;73;26300;-84
2022/02/09 04:57:52;;;;;;;4.97;4.58;;;;;;;5.63;57.80;95104.52;814838;73;26742;-85
2022/02/09 05:02:00;;;;;;;6.05;4.40;;;;;;;5.65;57.96;95101.69;814074;73;26723;-87
2022/02/09 05:04:11;;;;;;;5.28;4.78;;;;;;;5.68;58.04;95099.11;814070;73;26287;-84
2022/02/09 05:21:21;;;;;;;4.55;3.80;;;;;;;5.75;58.59;95118.73;814220;73;26285;-84
2022/02/09 05:25:49;;;;;;;6.42;4.53;;;;;;;5.76;58.63;95115.64;814154;73;26748;-78
2022/02/09 05:29:16;;;;;;;5.05;4.65;;;;;;;5.85;58.71;95120.68;813993;73;26343;-78
2022/02/09 05:30:21;;;;;;;5.20;4.70;;;;;;;5.87;58.67;95120.45;814081;73;26221;-79
2022/02/09 05:31:25;;;;;;;5.08;4.58;;;;;;;5.92;58.55;95125.21;813984;73;26295;-77
2022/02/09 05:32:29;;;;;;;4.95;4.47;;;;;;;5.95;58.32;95118.23;814000;73;26225;-79
2022/02/09 05:33:33;;;;;;;4.70;4.20;;;;;;;5.95;58.28;95118.23;815633;73;26362;-80
2022/02/09 05:34:36;;;;;;;4.95;4.47;;;;;;;5.98;58.24;95117.76;815637;73;26676;-78
2022/02/09 05:35:46;;;;;;;5.83;4.70;;;;;;;6.01;58.21;95121.16;814591;70;26456;-76
2022/02/09 05:36:47;;;;;;;5.15;4.55;;;;;;;6.03;58.20;95120.15;822178;71;26338;-79
2022/02/09 05:37:51;;;;;;;4.92;4.53;;;;;;;6.05;58.15;95118.09;825591;71;26287;-77
2022/02/09 05:38:56;;;;;;;5.45;4.20;;;;;;;6.05;58.14;95123.30;816792;71;26292;-78
2022/02/09 05:40:00;;;;;;;5.85;5.35;;;;;;;6.07;58.17;95125.92;820157;71;26330;-78
2022/02/09 05:41:03;;;;;;;5.62;4.60;;;;;;;6.09;58.13;95125.17;813412;71;26230;-79
2022/02/09 05:42:09;;;;;;;6.97;4.40;;;;;;;6.09;58.08;95121.26;813383;71;26344;-78
2022/02/09 05:43:15;;;;;;;6.10;4.40;;;;;;;6.11;58.03;95120.50;822728;71;26670;-79
2022/02/09 05:44:18;;;;;;;6.00;5.50;;;;;;;6.12;58.02;95120.76;832167;71;26514;-79
2022/02/09 05:45:25;;;;;;;4.65;4.25;;;;;;;6.14;58.04;95121.83;834081;70;26219;-80
2022/02/09 05:47:03;;;;;;;5.35;4.50;;;;;;;6.16;58.12;95124.97;825897;70;26343;-78
2022/02/09 05:50:36;;;;;;;5.92;4.40;;;;;;;6.21;58.65;95129.73;831062;70;26319;-80
2022/02/09 05:51:45;;;;;;;4.42;3.95;;;;;;;6.25;58.54;95130.04;831609;70;24898;-79
2022/02/09 05:59:37;;;;;;;6.80;5.20;;;;;;;6.30;57.74;95143.11;822028;72;26268;-80
2022/02/09 06:00:47;;;;;;;6.87;5.40;;;;;;;6.31;57.73;95145.22;821965;71;24738;-80
2022/02/09 06:01:46;;;;;;;6.58;5.85;;;;;;;6.33;57.65;95149.67;822041;71;26720;-81
2022/02/09 06:02:50;;;;;;;8.33;5.72;;;;;;;6.33;57.61;95153.58;831690;70;26280;-80
2022/02/09 06:03:53;;;;;;;8.68;6.17;;;;;;;6.34;57.49;95140.81;836999;70;26215;-79
2022/02/09 06:04:57;;;;;;;8.63;6.12;;;;;;;6.35;57.42;95149.70;830866;71;26309;-78
2022/02/09 06:06:03;;;;;;;6.33;5.10;;;;;;;6.35;57.41;95157.52;827528;70;26277;-80
2022/02/09 06:07:07;;;;;;;8.18;5.67;;;;;;;6.36;57.38;95149.17;833471;70;26213;-80
2022/02/09 06:08:11;;;;;;;7.83;5.62;;;;;;;6.35;57.49;95157.52;844554;70;26248;-81
2022/02/09 06:09:14;;;;;;;5.78;5.03;;;;;;;6.36;57.53;95160.37;840082;70;26742;-80
2022/02/09 06:10:22;;;;;;;7.90;5.40;;;;;;;6.37;57.55;95159.36;828216;70;26383;-79
2022/02/09 06:11:33;;;;;;;7.53;6.10;;;;;;;6.36;57.53;95157.77;821952;72;26326;-80
2022/02/09 06:12:45;;;;;;;5.80;5.30;;;;;;;6.37;57.49;95161.97;832732;71;26206;-81
2022/02/09 06:13:56;;;;;;;7.03;6.08;;;;;;;6.38;57.51;95157.01;821508;70;26305;-80
2022/02/09 06:19:37;;;;;;;7.00;5.50;;;;;;;6.40;57.52;95166.67;831722;70;26386;-79
2022/02/09 06:19:43;;;;;;;7.42;5.90;;;;;;;6.42;57.63;95165.13;799235;72;26396;-79
2022/02/09 06:20:45;;;;;;;6.72;5.05;;;;;;;6.41;57.72;95172.17;831268;70;26697;-80
2022/02/09 06:21:49;;;;;;;6.50;4.67;;;;;;;6.42;57.74;95174.25;841735;70;26808;-79
2022/02/09 06:22:53;;;;;;;7.60;5.40;;;;;;;6.43;57.75;95177.15;838959;70;26262;-80
2022/02/09 06:23:56;;;;;;;5.60;4.80;;;;;;;6.43;57.80;95170.63;842147;70;26357;-80
2022/02/09 06:25:00;;;;;;;8.75;5.45;;;;;;;6.45;57.75;95175.58;830025;70;26250;-83
2022/02/09 06:26:05;;;;;;;5.83;5.00;;;;;;;6.46;57.75;95175.87;838220;70;26374;-80
2022/02/09 06:27:13;;;;;;;6.62;5.55;;;;;;;6.46;57.78;95176.64;843894;70;26720;-80
2022/02/09 06:28:17;;;;;;;6.22;5.35;;;;;;;6.47;57.80;95184.75;823678;70;27063;-82
2022/02/09 06:29:21;;;;;;;7.45;5.20;;;;;;;6.46;57.80;95181.08;823696;71;26498;-82
2022/02/09 06:30:25;;;;;;;7.22;5.45;;;;;;;6.51;57.79;95190.24;823799;70;26732;-81
2022/02/09 06:31:31;;;;;;;5.70;5.12;;;;;;;6.52;57.78;95189.23;821893;71;26706;-79
2022/02/09 06:32:35;;;;;;;6.78;5.50;;;;;;;6.51;57.81;95192.84;826316;70;26786;-78
2022/02/09 06:33:38;;;;;;;5.65;4.97;;;;;;;6.53;57.87;95188.18;822541;71;26277;-82
2022/02/09 06:34:43;;;;;;;8.18;5.00;;;;;;;6.53;57.86;95191.59;823407;71;26645;-81
2022/02/09 06:35:48;;;;;;;5.67;5.05;;;;;;;6.55;57.95;95193.94;825419;70;26318;-82
2022/02/09 06:36:59;;;;;;;5.15;4.62;;;;;;;6.54;58.03;95195.77;790469;73;26298;-81
2022/02/09 06:37:59;;;;;;;5.30;4.80;;;;;;;6.57;58.08;95198.42;822695;70;26284;-81
2022/02/09 06:39:06;;;;;;;5.55;5.03;;;;;;;6.57;58.16;95198.42;822861;71;26331;-81
2022/02/09 06:40:11;;;;;;;5.62;5.20;;;;;;;6.57;58.17;95197.90;830395;70;26368;-79
2022/02/09 06:41:14;;;;;;;6.37;5.78;;;;;;;6.59;58.25;95196.36;835695;70;26326;-82
2022/02/09 06:42:24;;;;;;;6.50;5.30;;;;;;;6.59;58.30;95198.44;822195;72;26346;-81
2022/02/09 06:43:29;;;;;;;6.10;5.55;;;;;;;6.61;58.33;95195.07;822089;72;26210;-81
2022/02/09 06:44:33;;;;;;;6.28;5.45;;;;;;;6.61;58.36;95198.98;823168;70;27032;-81
2022/02/09 06:45:40;;;;;;;7.80;5.30;;;;;;;6.62;58.41;95195.33;827211;70;26340;-80
2022/02/09 06:46:43;;;;;;;6.37;4.72;;;;;;;6.65;58.48;95198.48;823392;70;26346;-81
2022/02/09 06:47:47;;;;;;;5.33;4.58;;;;;;;6.65;58.52;95200.59;822383;70;26271;-82
2022/02/09 06:48:50;;;;;;;5.50;5.00;;;;;;;6.66;58.54;95206.06;822178;72;26268;-81
2022/02/09 06:50:01;;;;;;;6.20;5.60;;;;;;;6.65;58.51;95211.52;822204;72;26769;-81
2022/02/09 06:51:15;;;;;;;6.40;5.22;;;;;;;6.65;58.61;95210.21;821901;72;26930;-82
2022/02/09 06:52:11;;;;;;;7.15;5.20;;;;;;;6.65;58.72;95208.41;820890;72;26277;-82
2022/02/09 06:54:42;;;;;;;6.05;5.05;;;;;;;6.66;58.84;95210.50;823905;71;26770;-79
2022/02/09 06:55:44;;;;;;;9.38;5.22;;;;;;;6.66;59.00;95211.80;831939;70;26271;-81
2022/02/09 06:58:01;;;;;;;6.05;5.45;;;;;;;6.69;58.99;95217.81;834111;70;26342;-81
2022/02/09 06:59:12;;;;;;;5.72;5.22;;;;;;;6.68;58.99;95218.86;822785;71;26311;-83
2022/02/09 07:00:11;;;;;;;6.70;5.25;;;;;;;6.68;59.00;95215.73;822908;71;26276;-80
2022/02/09 07:01:15;;;;;;;6.00;5.40;;;;;;;6.70;58.98;95219.41;822134;70;26330;-81
2022/02/09 07:02:19;;;;;;;6.83;5.60;;;;;;;6.71;58.97;95217.05;832549;71;24316;-81
2022/02/09 07:03:22;;;;;;;7.42;4.97;;;;;;;6.71;58.99;95219.17;826357;70;26261;-81
2022/02/09 07:04:26;;;;;;;6.20;5.60;;;;;;;6.71;59.02;95215.26;822155;72;26337;-81
2022/02/09 07:05:32;;;;;;;6.37;5.80;;;;;;;6.73;59.02;95219.71;823633;70;26249;-80
2022/02/09 07:06:36;;;;;;;6.62;5.65;;;;;;;6.74;58.99;95219.19;826205;70;26260;-81
2022/02/09 07:07:40;;;;;;;7.80;6.15;;;;;;;6.74;58.98;95219.19;834701;71;26258;-82
2022/02/09 07:08:44;;;;;;;5.50;5.00;;;;;;;6.73;59.00;95214.99;825367;70;26795;-82
2022/02/09 07:09:48;;;;;;;8.18;6.08;;;;;;;6.73;59.05;95212.38;835918;71;26347;-81
2022/02/09 07:10:51;;;;;;;7.25;5.92;;;;;;;6.74;59.08;95216.58;823041;70;26209;-81
2022/02/09 07:11:56;;;;;;;6.75;5.58;;;;;;;6.74;59.10;95212.14;822473;70;26292;-80
2022/02/09 07:13:00;;;;;;;7.12;5.20;;;;;;;6.74;59.09;95206.93;822218;71;26755;-79
2022/02/09 07:14:04;;;;;;;5.97;5.28;;;;;;;6.75;59.11;95207.22;822784;71;26282;-81
2022/02/09 07:15:11;;;;;;;6.97;5.17;;;;;;;6.76;59.16;95205.39;831811;71;26820;-79
2022/02/09 07:16:14;;;;;;;8.03;5.33;;;;;;;6.75;59.22;95204.61;826411;70;26367;-81
2022/02/09 07:17:17;;;;;;;6.00;5.50;;;;;;;6.77;59.22;95206.95;822173;70;26229;-79
2022/02/09 07:18:24;;;;;;;6.37;5.87;;;;;;;6.77;59.26;95200.43;822297;72;26292;-80
2022/02/09 07:19:29;;;;;;;6.15;5.50;;;;;;;6.77;59.31;95206.45;826274;70;26694;-81
2022/02/09 07:20:42;;;;;;;5.60;5.20;;;;;;;6.78;59.32;95203.32;839529;70;26299;-82
2022/02/09 07:21:40;;;;;;;5.67;5.03;;;;;;;6.77;59.33;95200.43;824213;70;26375;-81
2022/02/09 07:22:46;;;;;;;7.17;5.28;;;;;;;6.78;59.36;95199.41;823821;70;26766;-82
2022/02/09 07:23:53;;;;;;;5.33;4.92;;;;;;;6.78;59.44;95211.14;823583;71;26712;-81
2022/02/09 07:25:08;;;;;;;5.95;5.10;;;;;;;6.79;59.44;95204.88;822857;71;26301;-80
2022/02/09 07:26:29;;;;;;;6.28;5.40;;;;;;;6.78;59.47;95210.62;827150;70;26651;-79
2022/02/09 07:27:28;;;;;;;5.42;5.00;;;;;;;6.79;59.53;95218.73;831608;70;26740;-82
2022/02/09 07:28:30;;;;;;;5.80;5.05;;;;;;;6.80;59.51;95210.38;825148;70;26332;-81
2022/02/09 07:29:34;;;;;;;5.90;5.28;;;;;;;6.78;59.55;95213.23;823913;70;26273;-82
2022/02/09 07:30:38;;;;;;;5.70;5.15;;;;;;;6.79;59.53;95212.21;844267;70;26242;-83
2022/02/09 07:31:43;;;;;;;5.20;4.70;;;;;;;6.81;59.54;95219.27;823878;70;26536;-81
2022/02/09 07:32:47;;;;;;;5.15;4.75;;;;;;;6.81;59.52;95221.88;823607;71;26774;-79
2022/02/09 07:33:53;;;;;;;5.00;4.60;;;;;;;6.80;59.56;95212.47;822401;70;26241;-80
2022/02/09 07:34:56;;;;;;;5.20;4.70;;;;;;;6.81;59.58;95215.86;822120;70;26214;-82
2022/02/09 07:36:00;;;;;;;4.60;4.20;;;;;;;6.83;59.54;95219.01;823338;70;26326;-80
2022/02/09 07:37:04;;;;;;;5.20;4.15;;;;;;;6.85;59.47;95226.59;843561;70;26302;-82
2022/02/09 07:38:08;;;;;;;4.65;4.22;;;;;;;6.85;59.42;95217.46;843021;70;26277;-83
2022/02/09 07:39:12;;;;;;;8.13;5.08;;;;;;;6.87;59.34;95218.78;834540;70;26274;-82
2022/02/09 07:40:17;;;;;;;5.87;4.58;;;;;;;6.86;59.30;95219.83;825519;70;26315;-81
2022/02/09 07:41:21;;;;;;;5.50;4.67;;;;;;;6.87;59.22;95218.01;833512;70;26266;-82
2022/02/09 07:42:28;;;;;;;6.05;4.50;;;;;;;6.87;59.20;95216.70;822639;72;26217;-82
2022/02/09 07:43:45;;;;;;;5.65;4.90;;;;;;;6.89;59.12;95222.46;822278;72;26750;-83
2022/02/09 07:44:57;;;;;;;5.37;4.87;;;;;;;6.90;59.09;95223.53;821412;72;26271;-86
2022/02/09 07:46:12;;;;;;;6.47;4.90;;;;;;;6.91;59.06;95219.09;821731;70;26519;-82
2022/02/09 07:47:21;;;;;;;4.80;4.35;;;;;;;6.91;58.99;95215.95;820456;71;26288;-81
2022/02/09 07:48:27;;;;;;;5.35;4.85;;;;;;;6.93;58.89;95223.02;791786;74;26385;-83
2022/02/09 07:52:54;;;;;;;6.78;4.87;;;;;;;7.02;58.60;95221.55;783703;74;26298;-83
2022/02/09 07:54:02;;;;;;;5.22;4.70;;;;;;;7.04;58.51;95220.53;810335;73;26265;-83
2022/02/09 07:55:06;;;;;;;5.08;4.50;;;;;;;7.07;58.41;95217.42;806020;73;26297;-81
2022/02/09 07:56:09;;;;;;;7.70;4.97;;;;;;;7.07;58.29;95218.72;807045;73;26822;-81
2022/02/09 07:57:15;;;;;;;5.92;4.12;;;;;;;7.08;58.19;95217.70;805906;73;24657;-79
2022/02/09 07:58:19;;;;;;;5.58;4.55;;;;;;;7.10;58.12;95216.41;806087;73;26218;-79
2022/02/09 07:59:24;;;;;;;6.67;5.08;;;;;;;7.10;58.08;95220.33;806292;73;26288;-77
2022/02/09 08:00:28;;;;;;;6.58;5.37;;;;;;;7.13;58.03;95225.56;797457;73;26316;-78
2022/02/09 08:01:32;;;;;;;7.20;5.05;;;;;;;7.14;57.97;95226.62;792041;74;26410;-80
2022/02/09 08:02:36;;;;;;;5.25;4.67;;;;;;;7.18;57.96;95226.93;796429;74;26344;-80
2022/02/09 08:03:41;;;;;;;5.80;4.62;;;;;;;7.20;57.87;95228.25;808515;73;26323;-80
2022/02/09 08:04:45;;;;;;;6.33;4.87;;;;;;;7.22;57.82;95228.01;806314;73;26269;-79
2022/02/09 08:05:48;;;;;;;6.60;4.62;;;;;;;7.27;57.59;95232.48;804604;73;26332;-79
2022/02/09 08:06:53;;;;;;;5.25;4.75;;;;;;;7.28;57.54;95228.32;796172;73;26252;-78
2022/02/09 08:07:56;;;;;;;5.50;4.47;;;;;;;7.28;57.46;95231.42;781459;74;26294;-78
2022/02/09 08:09:07;;;;;;;5.87;5.20;;;;;;;7.30;57.36;95229.36;813605;73;26286;-81
2022/02/09 08:10:19;;;;;;;4.22;3.83;;;;;;;7.30;57.37;95222.33;814149;72;26277;-79
2022/02/09 08:11:25;;;;;;;5.00;4.03;;;;;;;7.33;57.30;95224.95;812960;72;26304;-82
2022/02/09 08:12:54;;;;;;;4.12;3.72;;;;;;;7.33;57.20;95224.44;790446;74;26373;-82
2022/02/09 08:20:28;;;;;;;5.60;4.42;;;;;;;7.38;57.10;95231.02;814156;73;26264;-79
2022/02/09 08:23:23;;;;;;;5.80;4.70;;;;;;;7.41;57.04;95232.33;813931;72;26280;-80
2022/02/09 08:24:29;;;;;;;5.00;4.12;;;;;;;7.47;56.97;95230.03;807969;73;26226;-81
2022/02/09 08:26:48;;;;;;;4.50;4.03;;;;;;;7.51;56.83;95222.50;786377;73;26234;-80
2022/02/09 08:27:56;;;;;;;7.10;5.20;;;;;;;7.51;56.71;95216.75;791648;74;26306;-80
2022/02/09 08:29:01;;;;;;;5.00;4.50;;;;;;;7.55;56.72;95219.12;781901;75;26664;-82
2022/02/09 08:30:07;;;;;;;6.37;4.10;;;;;;;7.59;56.65;95219.42;803266;73;26621;-82
2022/02/09 08:33:35;;;;;;;5.80;4.90;;;;;;;7.79;56.50;95207.02;790704;73;26399;-81
2022/02/09 08:34:40;;;;;;;6.10;4.47;;;;;;;7.88;56.38;95213.34;790976;73;26406;-85
2022/02/09 08:35:45;;;;;;;5.28;4.75;;;;;;;7.97;56.24;95205.83;788509;74;26355;-80
2022/02/09 08:36:49;;;;;;;4.30;4.00;;;;;;;8.05;56.06;95205.34;796199;74;26758;-81
2022/02/09 08:37:57;;;;;;;5.28;4.30;;;;;;;8.14;55.92;95203.81;813672;73;26286;-83
2022/02/09 08:39:00;;;;;;;5.42;4.92;;;;;;;8.25;55.86;95201.24;814184;73;26310;-84
2022/02/09 08:40:05;;;;;;;6.70;4.58;;;;;;;8.35;55.72;95199.98;799651;74;26384;-81
2022/02/09 08:41:09;;;;;;;7.25;5.05;;;;;;;8.47;55.58;95199.27;810407;73;26688;-83
2022/02/09 08:42:13;;;;;;;5.87;4.78;;;;;;;8.60;55.28;95207.17;809955;73;26355;-81
2022/02/09 08:43:17;;;;;;;10.20;4.58;;;;;;;8.74;55.02;95202.22;806151;73;26284;-83
2022/02/09 08:44:21;;;;;;;5.80;4.83;;;;;;;8.90;54.75;95201.73;779994;73;27108;-82
2022/02/09 08:45:24;;;;;;;5.37;4.80;;;;;;;9.06;54.47;95204.64;786561;73;26228;-82
2022/02/09 08:46:30;;;;;;;9.03;5.42;;;;;;;9.20;54.01;95207.54;780726;74;26260;-78
2022/02/09 08:47:34;;;;;;;6.47;4.60;;;;;;;9.34;53.64;95199.96;784986;74;26701;-79
2022/02/09 08:48:38;;;;;;;5.90;4.45;;;;;;;9.46;53.29;95197.86;813265;73;26403;-79
2022/02/09 08:49:44;;;;;;;4.72;4.05;;;;;;;9.55;52.90;95200.23;810348;72;26790;-80
2022/02/09 08:50:49;;;;;;;4.20;3.85;;;;;;;9.66;52.52;95204.15;823433;72;26324;-79
2022/02/09 08:51:58;;;;;;;5.30;4.47;;;;;;;9.72;52.11;95205.19;822902;72;26291;-82
2022/02/09 08:53:04;;;;;;;5.03;4.40;;;;;;;9.80;52.00;95203.87;823343;72;26401;-81
2022/02/09 08:54:08;;;;;;;6.53;4.03;;;;;;;9.88;51.73;95207.27;823232;72;26269;-80
2022/02/09 08:55:13;;;;;;;4.87;4.33;;;;;;;9.95;51.54;95214.31;811670;72;26450;-81
2022/02/09 08:56:17;;;;;;;4.67;4.28;;;;;;;10.06;51.34;95218.22;805874;72;26336;-79
2022/02/09 08:57:21;;;;;;;4.50;4.10;;;;;;;10.13;51.18;95209.56;804954;72;26325;-80
2022/02/09 08:58:25;;;;;;;7.37;4.33;;;;;;;10.22;50.93;95217.94;800962;72;26229;-80
2022/02/09 08:59:29;;;;;;;5.10;4.22;;;;;;;10.30;50.88;95217.95;813639;72;26261;-81
2022/02/09 09:00:36;;;;;;;5.20;4.50;;;;;;;10.39;50.69;95206.37;810641;72;26380;-79
2022/02/09 09:01:43;;;;;;;5.10;4.37;;;;;;;10.45;50.32;95215.02;801359;72;26303;-81
2022/02/09 09:02:49;;;;;;;5.42;4.20;;;;;;;10.49;50.11;95220.76;806077;72;26668;-78
2022/02/09 09:03:53;;;;;;;4.97;4.50;;;;;;;;;;819225;72;26693;-79
2022/02/09 09:04:57;;;;;;;4.30;3.90;;;;;;;;;;800374;72;26825;-81
2022/02/09 09:06:02;;;;;;;4.58;4.17;;;;;;;;;;803824;72;27569;-79
2022/02/09 09:07:11;;;;;;;4.10;3.60;;;;;;;;;;797379;72;26335;-79
2022/02/09 09:11:04;;;;;;;4.53;4.10;;;;;;;;;;792387;72;26295;-80
2022/02/09 09:41:27;;;;;;;3.75;3.45;;;;;;;;;;815857;71;26285;-81
2022/02/09 10:01:02;;;;;;;3.05;2.85;;;;;;;;;;830244;71;26268;-81
2022/02/09 10:02:59;;;;;;;3.40;3.10;;;;;;;;;;820226;71;26364;-82
2022/02/09 10:33:43;;;;;;;4.10;3.70;;;;;;;;;;812997;73;26332;-80
2022/02/09 10:34:45;;;;;;;3.67;3.47;;;;;;;;;;795802;74;26322;-80
2022/02/09 10:36:00;;;;;;;3.42;3.15;;;;;;;;;;795772;74;26298;-81
2022/02/09 10:36:55;;;;;;;4.10;3.80;;;;;;;;;;793380;74;26250;-80
2022/02/09 10:38:01;;;;;;;4.40;4.00;;;;;;;;;;795851;74;26771;-81
2022/02/09 10:39:07;;;;;;;5.30;4.20;;;;;;;;;;795672;72;26297;-81
2022/02/09 10:40:14;;;;;;;4.75;4.08;;;;;;;;;;795702;74;26305;-80
2022/02/09 10:41:23;;;;;;;3.90;3.60;;;;;;;;;;795631;74;26283;-80
2022/02/09 10:42:31;;;;;;;4.12;3.70;;;;;;;;;;794993;74;26321;-81